.
WxDataArchive / Data Records for 2015-06-19
2015-06-18 June 2015 2015-06-20

Data Records for Friday, 19 June 2015

Time	Temp	Chill	HIndex	Humid	Dewpt	 Wind 	HiWind	WindDir	Rain 	Barom
-----	----	-----	------	-----	-----	------	------	-------	-----	-----
00:00	68.6	68.6	68.6	93	66.5	0	0	---	0.00	29.941 
00:05	68.6	68.6	68.6	93	66.5	0	0	---	0.00	29.941 
00:10	68.6	68.6	68.6	93	66.5	0	0	---	0.00	29.941 
00:15	68.6	68.6	68.6	93	66.5	0	0	---	0.00	29.942 
00:20	68.6	68.6	68.6	93	66.5	0	0	---	0.00	29.942 
00:25	68.4	68.4	68.4	93	66.3	0	0	---	0.00	29.942 
00:30	68.4	68.4	68.4	93	66.3	0	0	---	0.00	29.946 
00:35	68.4	68.4	68.4	93	66.3	0	0	---	0.00	29.946 
00:40	68.4	68.4	68.4	93	66.3	0	0	---	0.00	29.946 
00:45	68.4	68.4	68.4	94	66.6	0	0	---	0.00	29.947 
00:50	68.3	68.3	68.3	94	66.5	0	0	---	0.00	29.947 
00:55	68.3	68.3	68.3	94	66.5	0	0	---	0.00	29.947 
01:00	68.3	68.3	68.3	94	66.5	0	0	---	0.00	29.948 
01:05	68.3	68.3	68.3	94	66.5	0	0	---	0.00	29.948 
01:10	68.3	68.3	68.3	94	66.5	0	0	---	0.00	29.948 
01:15	68.3	68.3	68.3	94	66.5	0	0	---	0.00	29.947 
01:20	68.3	68.3	68.3	94	66.5	0	0	---	0.00	29.947 
01:25	68.1	68.1	68.1	94	66.3	0	0	---	0.00	29.947 
01:30	68.1	68.1	68.1	94	66.3	0	0	---	0.00	29.947 
01:35	68.1	68.1	68.1	94	66.3	0	0	---	0.00	29.947 
01:40	68.1	68.1	68.1	94	66.3	0	0	---	0.00	29.947 
01:45	68.3	68.3	68.3	94	66.5	0	0	---	0.00	29.952 
01:50	68.3	68.3	68.3	94	66.5	0	0	---	0.00	29.952 
01:55	68.3	68.3	68.3	94	66.5	0	0	---	0.00	29.952 
02:00	68.4	68.4	68.4	94	66.6	0	0	---	0.00	29.951 
02:05	68.4	68.4	68.4	95	66.9	0	0	---	0.00	29.951 
02:10	68.4	68.4	68.4	95	66.9	0	0	---	0.00	29.951 
02:15	68.6	68.6	68.6	95	67.1	0	0	---	0.00	29.954 
02:20	68.6	68.6	68.6	95	67.1	0	0	---	0.00	29.954 
02:25	68.6	68.6	68.6	95	67.1	0	0	---	0.00	29.954 
02:30	68.6	68.6	68.6	95	67.1	0	0	---	0.00	29.958 
02:35	68.6	68.6	68.6	95	67.1	0	0	---	0.00	29.958 
02:40	68.6	68.6	68.6	95	67.1	0	0	---	0.00	29.958 
02:45	68.6	68.6	68.6	95	67.1	0	0	---	0.00	29.957 
02:50	68.6	68.6	68.6	95	67.1	0	0	---	0.00	29.957 
02:55	68.6	68.6	68.6	95	67.1	0	0	---	0.00	29.957 
03:00	68.6	68.6	68.6	95	67.1	0	0	---	0.00	29.960 
03:05	68.8	68.8	68.8	95	67.3	0	0	---	0.00	29.960 
03:10	68.8	68.8	68.8	95	67.3	0	0	---	0.00	29.960 
03:15	68.8	68.8	68.8	95	67.3	0	0	---	0.00	29.959 
03:20	68.8	68.8	68.8	95	67.3	0	0	---	0.00	29.959 
03:25	68.8	68.8	68.8	95	67.3	0	0	---	0.00	29.959 
03:30	68.6	68.6	68.6	95	67.1	0	0	---	0.00	29.957 
03:35	68.6	68.6	68.6	95	67.1	0	0	---	0.00	29.957 
03:40	68.6	68.6	68.6	95	67.1	0	0	---	0.00	29.957 
03:45	68.6	68.6	68.6	95	67.1	0	0	---	0.00	29.954 
03:50	68.6	68.6	68.6	95	67.1	0	0	---	0.00	29.954 
03:55	68.6	68.6	68.6	95	67.1	0	0	---	0.00	29.954 
04:00	68.6	68.6	68.6	95	67.1	0	0	---	0.00	29.948 
04:05	68.4	68.4	68.4	95	66.9	0	0	---	0.00	29.948 
04:10	68.4	68.4	68.4	95	66.9	0	0	---	0.00	29.948 
04:15	68.3	68.3	68.3	95	66.8	0	0	---	0.00	29.950 
04:20	68.1	68.1	68.1	94	66.3	0	0	---	0.00	29.950 
04:25	68.1	68.1	68.1	95	66.6	0	0	---	0.00	29.950 
04:30	67.9	67.9	67.9	94	66.1	0	0	---	0.00	29.952 
04:35	67.9	67.9	67.9	94	66.1	0	0	---	0.00	29.952 
04:40	67.8	67.8	67.8	94	66.0	0	0	---	0.00	29.952 
04:45	67.8	67.8	67.8	94	66.0	0	0	---	0.00	29.951 
04:50	67.6	67.6	67.6	94	65.8	0	0	---	0.00	29.951 
04:55	67.4	67.4	67.4	94	65.6	0	0	---	0.00	29.951 
05:00	67.4	67.4	67.4	94	65.6	0	4	202	0.00	29.952 
05:05	67.3	67.3	67.3	94	65.5	0	3	112	0.00	29.952 
05:10	67.3	67.3	67.3	94	65.5	0	2	112	0.00	29.952 
05:15	67.3	67.3	67.3	94	65.5	1	3	112	0.00	29.965 
05:20	67.1	67.1	67.1	94	65.3	0	3	112	0.00	29.965 
05:25	67.1	67.1	67.1	93	65.0	0	3	112	0.00	29.965 
05:30	66.9	66.9	66.9	93	64.8	1	3	112	0.00	29.972 
05:35	66.6	66.6	66.6	93	64.5	0	2	112	0.00	29.972 
05:40	66.4	66.4	66.4	93	64.3	0	3	112	0.00	29.972 
05:45	66.3	66.3	66.3	92	63.9	0	2	112	0.01	29.983 
05:50	65.8	65.8	65.8	92	63.4	0	3	112	0.00	29.983 
05:55	65.5	65.5	65.5	92	63.1	1	5	112	0.00	29.983 
06:00	65.2	65.2	65.2	91	62.5	1	5	112	0.00	29.986 
06:05	65.0	65.0	65.0	91	62.3	1	4	112	0.00	29.986 
06:10	64.8	64.8	64.8	91	62.1	1	4	112	0.00	29.986 
06:15	64.5	64.5	64.5	91	61.8	1	4	90	0.00	29.991 
06:20	64.3	64.3	64.3	90	61.3	1	4	90	0.00	29.991 
06:25	64.3	64.3	64.3	90	61.3	1	4	90	0.00	29.991 
06:30	64.3	64.3	64.3	89	61.0	1	6	90	0.00	29.997 
06:35	64.2	64.2	64.2	89	60.9	1	4	180	0.00	29.997 
06:40	64.2	64.2	64.2	89	60.9	1	3	158	0.00	29.997 
06:45	64.0	64.0	64.0	88	60.4	1	6	135	0.00	30.005 
06:50	64.0	64.0	64.0	88	60.4	1	3	135	0.00	30.005 
06:55	64.0	64.0	64.0	88	60.4	1	4	135	0.00	30.005 
07:00	64.0	64.0	64.0	87	60.0	1	5	112	0.00	30.009 
07:05	64.0	64.0	64.0	87	60.0	1	4	112	0.00	30.009 
07:10	64.0	64.0	64.0	87	60.0	0	4	112	0.00	30.009 
07:15	64.0	64.0	64.0	87	60.0	0	2	112	0.00	30.009 
07:20	64.2	64.2	64.2	87	60.2	0	3	112	0.00	30.009 
07:25	64.2	64.2	64.2	87	60.2	1	4	112	0.00	30.009 
07:30	64.2	64.2	64.2	88	60.6	0	2	112	0.00	30.010 
07:35	64.3	64.3	64.3	88	60.7	0	2	112	0.00	30.010 
07:40	64.5	64.5	64.5	87	60.5	1	3	112	0.00	30.010 
07:45	64.5	64.5	64.5	87	60.5	1	3	90	0.00	30.015 
07:50	64.8	64.8	64.8	87	60.8	0	2	90	0.00	30.015 
07:55	64.8	64.8	64.8	86	60.5	1	5	90	0.00	30.015 
08:00	65.0	65.0	65.0	86	60.7	1	3	90	0.00	30.021 
08:05	65.0	65.0	65.0	86	60.7	1	4	90	0.00	30.021 
08:10	65.0	65.0	65.0	85	60.4	1	4	90	0.00	30.021 
08:15	65.2	65.2	65.2	85	60.6	1	3	90	0.00	30.021 
08:20	65.3	65.3	65.3	85	60.7	1	3	90	0.00	30.021 
08:25	65.5	65.5	65.5	85	60.9	1	5	112	0.00	30.021 
08:30	65.6	65.6	65.6	84	60.6	2	6	112	0.00	30.019 
08:35	65.8	65.8	65.8	84	60.8	1	5	112	0.00	30.019 
08:40	65.8	65.8	65.8	84	60.8	2	7	90	0.00	30.019 
08:45	65.8	65.8	65.8	84	60.8	2	5	90	0.00	30.019 
08:50	65.8	65.8	65.8	84	60.8	0	3	90	0.00	30.019 
08:55	65.8	65.8	65.8	84	60.8	1	4	90	0.00	30.019 
09:00	66.0	66.0	66.0	84	61.0	1	3	90	0.00	30.022 
09:05	66.0	66.0	66.0	85	61.4	1	3	90	0.00	30.022 
09:10	66.0	66.0	66.0	85	61.4	1	5	90	0.00	30.022 
09:15	66.0	66.0	66.0	85	61.4	1	5	90	0.00	30.034 
09:20	66.0	66.0	66.0	86	61.7	1	5	90	0.00	30.034 
09:25	66.0	66.0	66.0	85	61.4	1	7	90	0.00	30.034 
09:30	65.8	65.8	65.8	86	61.5	0	3	90	0.00	30.035 
09:35	66.0	66.0	66.0	86	61.7	1	3	90	0.00	30.035 
09:40	65.8	65.8	65.8	86	61.5	1	5	90	0.00	30.035 
09:45	65.8	65.8	65.8	86	61.5	1	3	90	0.00	30.038 
09:50	65.6	65.6	65.6	85	61.0	2	7	90	0.00	30.038 
09:55	65.8	65.8	65.8	86	61.5	1	5	68	0.00	30.038 
10:00	65.8	65.8	65.8	85	61.2	2	7	68	0.00	30.037 
10:05	66.0	66.0	66.0	86	61.7	2	6	112	0.00	30.037 
10:10	66.1	66.1	66.1	85	61.5	1	4	68	0.00	30.037 
10:15	66.3	66.3	66.3	85	61.6	1	4	90	0.00	30.038 
10:20	66.4	66.4	66.4	84	61.4	2	6	90	0.00	30.038 
10:25	66.4	66.4	66.4	84	61.4	1	4	112	0.00	30.038 
10:30	66.6	66.6	66.6	84	61.6	1	5	112	0.00	30.038 
10:35	66.8	66.8	66.8	84	61.8	1	6	112	0.00	30.038 
10:40	66.8	66.8	66.8	84	61.8	1	4	112	0.00	30.038 
10:45	66.8	66.8	66.8	84	61.8	1	4	112	0.00	30.047 
10:50	66.9	66.9	66.9	84	61.9	0	2	112	0.00	30.047 
10:55	66.8	66.8	66.8	84	61.8	2	6	112	0.00	30.047 
11:00	66.8	66.8	66.8	84	61.8	1	5	90	0.00	30.045 
11:05	66.9	66.9	66.9	84	61.9	1	4	68	0.00	30.045 
11:10	67.1	67.1	67.1	84	62.1	1	4	68	0.00	30.045 
11:15	67.3	67.3	67.3	84	62.3	1	4	68	0.00	30.041 
11:20	67.4	67.4	67.4	84	62.4	1	4	68	0.00	30.041 
11:25	67.4	67.4	67.4	84	62.4	1	5	68	0.00	30.041 
11:30	67.6	67.6	67.6	83	62.2	2	4	68	0.00	30.039 
11:35	67.6	67.6	67.6	84	62.6	0	3	68	0.00	30.039 
11:40	67.9	67.9	67.9	83	62.5	2	4	68	0.00	30.039 
11:45	68.1	68.1	68.1	83	62.7	2	5	68	0.00	30.037 
11:50	68.1	68.1	68.1	83	62.7	0	3	68	0.00	30.037 
11:55	68.1	68.1	68.1	82	62.4	1	5	68	0.00	30.037 
12:00	68.1	68.1	68.1	82	62.4	1	3	68	0.00	30.043 
12:05	68.1	68.1	68.1	83	62.7	1	3	68	0.00	30.043 
12:10	68.1	68.1	68.1	82	62.4	1	4	68	0.00	30.043 
12:15	68.3	68.3	68.3	83	62.9	1	5	68	0.00	30.039 
12:20	68.3	68.3	68.3	83	62.9	1	3	68	0.00	30.039 
12:25	68.3	68.3	68.3	82	62.6	2	5	68	0.00	30.039 
12:30	68.4	68.4	68.4	82	62.7	1	6	90	0.00	30.035 
12:35	68.4	68.4	68.4	82	62.7	1	4	90	0.00	30.035 
12:40	68.6	68.6	68.6	82	62.9	1	5	90	0.00	30.035 
12:45	68.6	68.6	68.6	82	62.9	1	7	112	0.00	30.033 
12:50	68.6	68.6	68.6	81	62.5	2	6	112	0.00	30.033 
12:55	68.6	68.6	68.6	82	62.9	1	5	90	0.00	30.033 
13:00	68.4	68.4	68.4	81	62.3	2	4	90	0.00	30.027 
13:05	68.4	68.4	68.4	82	62.7	0	2	90	0.00	30.027 
13:10	68.3	68.3	68.3	82	62.6	2	5	90	0.00	30.027 
13:15	68.1	68.1	68.1	82	62.4	1	4	90	0.00	30.035 
13:20	68.1	68.1	68.1	82	62.4	1	3	90	0.00	30.035 
13:25	68.3	68.3	68.3	82	62.6	2	5	90	0.00	30.035 
13:30	68.3	68.3	68.3	82	62.6	1	4	90	0.00	30.034 
13:35	68.4	68.4	68.4	82	62.7	1	4	90	0.00	30.034 
13:40	68.6	68.6	68.6	82	62.9	2	5	90	0.00	30.034 
13:45	68.6	68.6	68.6	81	62.5	1	4	90	0.00	30.026 
13:50	68.6	68.6	68.6	81	62.5	2	4	90	0.00	30.026 
13:55	68.4	68.4	68.4	81	62.3	2	5	90	0.00	30.026 
14:00	68.4	68.4	68.4	81	62.3	1	5	90	0.00	30.018 
14:05	68.4	68.4	68.4	82	62.7	1	4	90	0.00	30.018 
14:10	68.4	68.4	68.4	81	62.3	2	5	90	0.00	30.018 
14:15	68.3	68.3	68.3	82	62.6	1	6	90	0.00	30.021 
14:20	68.3	68.3	68.3	82	62.6	1	4	90	0.00	30.021 
14:25	68.3	68.3	68.3	82	62.6	1	3	68	0.00	30.021 
14:30	68.3	68.3	68.3	83	62.9	1	5	90	0.00	30.023 
14:35	68.1	68.1	68.1	84	63.1	1	4	90	0.00	30.023 
14:40	67.9	67.9	67.9	85	63.2	2	5	90	0.00	30.023 
14:45	67.8	67.8	67.8	86	63.5	1	4	90	0.00	30.019 
14:50	67.8	67.8	67.8	87	63.8	1	3	90	0.00	30.019 
14:55	67.4	67.4	67.4	86	63.1	2	5	90	0.00	30.019 
15:00	67.4	67.4	67.4	87	63.4	2	6	90	0.00	30.018 
15:05	67.4	67.4	67.4	87	63.4	1	5	90	0.00	30.018 
15:10	67.4	67.4	67.4	86	63.1	2	5	112	0.00	30.018 
15:15	67.4	67.4	67.4	86	63.1	1	4	112	0.00	30.021 
15:20	67.3	67.3	67.3	86	63.0	1	4	112	0.00	30.021 
15:25	67.4	67.4	67.4	87	63.4	0	4	112	0.00	30.021 
15:30	67.6	67.6	67.6	86	63.3	1	3	112	0.00	30.010 
15:35	67.6	67.6	67.6	85	62.9	1	5	112	0.00	30.010 
15:40	67.6	67.6	67.6	85	62.9	1	4	90	0.00	30.010 
15:45	67.4	67.4	67.4	85	62.7	1	4	112	0.00	30.003 
15:50	67.6	67.6	67.6	86	63.3	2	6	90	0.00	30.003 
15:55	67.8	67.8	67.8	87	63.8	1	4	90	0.00	30.003 
16:00	67.8	67.8	67.8	87	63.8	1	4	90	0.00	29.984 
16:05	67.9	67.9	67.9	88	64.2	1	4	90	0.00	29.984 
16:10	67.8	67.8	67.8	88	64.1	1	5	90	0.00	29.984 
16:15	67.8	67.8	67.8	88	64.1	2	5	90	0.00	29.980 
16:20	67.8	67.8	67.8	87	63.8	2	6	90	0.00	29.980 
16:25	67.9	67.9	67.9	87	63.9	1	3	112	0.00	29.980 
16:30	67.9	67.9	67.9	88	64.2	0	3	112	0.00	29.988 
16:35	67.9	67.9	67.9	87	63.9	2	5	90	0.00	29.988 
16:40	67.9	67.9	67.9	86	63.5	3	7	90	0.00	29.988 
16:45	68.1	68.1	68.1	86	63.7	2	6	90	0.00	29.973 
16:50	68.1	68.1	68.1	85	63.4	2	6	112	0.00	29.973 
16:55	68.4	68.4	68.4	85	63.7	1	6	68	0.00	29.973 
17:00	68.4	68.4	68.4	84	63.4	2	5	68	0.00	29.977 
17:05	68.6	68.6	68.6	83	63.2	1	5	112	0.00	29.977 
17:10	68.8	68.8	68.8	82	63.1	2	6	112	0.00	29.977 
17:15	68.9	68.9	68.9	83	63.5	2	6	68	0.00	29.972 
17:20	68.9	68.9	68.9	82	63.2	2	5	68	0.00	29.972 
17:25	69.1	69.1	69.1	82	63.4	1	4	68	0.00	29.972 
17:30	69.3	69.3	69.3	82	63.6	0	3	68	0.00	29.974 
17:35	69.3	69.3	69.3	81	63.2	1	4	68	0.00	29.974 
17:40	69.4	69.4	69.4	81	63.3	1	3	68	0.00	29.974 
17:45	69.4	69.4	69.4	80	63.0	1	4	68	0.00	29.974 
17:50	69.4	69.4	69.4	79	62.6	1	4	68	0.00	29.974 
17:55	69.4	69.4	69.4	79	62.6	1	3	68	0.00	29.974 
18:00	69.8	69.8	69.8	80	63.3	1	3	68	0.00	29.972 
18:05	69.9	69.9	69.9	78	62.7	1	6	68	0.00	29.972 
18:10	69.9	69.9	69.9	78	62.7	2	5	68	0.00	29.972 
18:15	69.9	69.9	69.9	78	62.7	2	5	68	0.00	29.961 
18:20	70.1	70.1	70.1	79	63.3	1	4	68	0.00	29.961 
18:25	70.1	70.1	70.1	79	63.3	1	3	270	0.00	29.961 
18:30	70.1	70.1	70.1	79	63.3	1	3	135	0.00	29.960 
18:35	70.1	70.1	70.1	79	63.3	1	4	90	0.00	29.960 
18:40	69.9	69.9	69.9	79	63.1	1	3	90	0.00	29.960 
18:45	69.9	69.9	69.9	79	63.1	1	3	90	0.00	29.958 
18:50	69.9	69.9	69.9	79	63.1	1	3	90	0.00	29.958 
18:55	69.9	69.9	69.9	79	63.1	0	3	90	0.00	29.958 
19:00	69.9	69.9	69.9	79	63.1	0	2	90	0.00	29.961 
19:05	69.9	69.9	69.9	79	63.1	1	3	90	0.00	29.961 
19:10	69.9	69.9	69.9	79	63.1	0	2	90	0.00	29.961 
19:15	69.9	69.9	69.9	79	63.1	1	3	90	0.00	29.962 
19:20	69.8	69.8	69.8	78	62.6	1	4	90	0.00	29.962 
19:25	69.8	69.8	69.8	78	62.6	1	3	90	0.00	29.962 
19:30	69.8	69.8	69.8	78	62.6	2	5	90	0.00	29.960 
19:35	69.8	69.8	69.8	78	62.6	1	4	68	0.00	29.960 
19:40	69.8	69.8	69.8	77	62.3	1	4	68	0.00	29.960 
19:45	69.8	69.8	69.8	77	62.3	1	3	68	0.00	29.961 
19:50	69.8	69.8	69.8	77	62.3	1	3	68	0.00	29.961 
19:55	69.6	69.6	69.6	76	61.7	1	3	68	0.00	29.961 
20:00	69.6	69.6	69.6	75	61.3	1	4	68	0.00	29.961 
20:05	69.6	69.6	69.6	75	61.3	1	4	68	0.00	29.961 
20:10	69.6	69.6	69.6	75	61.3	1	5	68	0.00	29.961 
20:15	69.6	69.6	69.6	75	61.3	1	5	68	0.00	29.959 
20:20	69.6	69.6	69.6	76	61.7	1	4	90	0.00	29.959 
20:25	69.4	69.4	69.4	77	61.9	2	5	90	0.00	29.959 
20:30	69.3	69.3	69.3	77	61.8	1	5	90	0.00	29.959 
20:35	69.1	69.1	69.1	77	61.6	2	5	90	0.00	29.959 
20:40	68.9	68.9	68.9	77	61.4	2	5	68	0.00	29.959 
20:45	68.9	68.9	68.9	77	61.4	2	6	90	0.00	29.949 
20:50	68.8	68.8	68.8	77	61.3	3	7	90	0.00	29.949 
20:55	68.6	68.6	68.6	77	61.1	2	5	68	0.00	29.949 
21:00	68.6	68.6	68.6	77	61.1	1	5	68	0.00	29.943 
21:05	68.4	68.4	68.4	77	60.9	2	5	68	0.00	29.943 
21:10	68.4	68.4	68.4	78	61.3	1	3	68	0.00	29.943 
21:15	68.3	68.3	68.3	78	61.2	1	4	68	0.00	29.945 
21:20	68.3	68.3	68.3	78	61.2	1	4	68	0.00	29.945 
21:25	68.1	68.1	68.1	79	61.3	1	4	68	0.00	29.945 
21:30	68.1	68.1	68.1	79	61.3	1	3	68	0.00	29.944 
21:35	67.9	67.9	67.9	79	61.1	1	3	68	0.00	29.944 
21:40	67.9	67.9	67.9	79	61.1	2	6	68	0.00	29.944 
21:45	67.9	67.9	67.9	80	61.5	1	5	68	0.00	29.946 
21:50	67.9	67.9	67.9	80	61.5	1	4	68	0.00	29.946 
21:55	67.8	67.8	67.8	80	61.4	1	3	68	0.00	29.946 
22:00	67.8	67.8	67.8	80	61.4	1	3	68	0.00	29.956 
22:05	67.6	67.6	67.6	80	61.2	1	5	68	0.00	29.956 
22:10	67.6	67.6	67.6	81	61.6	1	4	68	0.00	29.956 
22:15	67.4	67.4	67.4	81	61.4	0	2	68	0.00	29.963 
22:20	67.4	67.4	67.4	81	61.4	1	5	68	0.00	29.963 
22:25	67.4	67.4	67.4	81	61.4	0	2	68	0.00	29.963 
22:30	67.3	67.3	67.3	81	61.3	1	3	68	0.00	29.966 
22:35	67.1	67.1	67.1	81	61.1	2	7	90	0.00	29.966 
22:40	67.1	67.1	67.1	81	61.1	1	3	112	0.00	29.966 
22:45	66.9	66.9	66.9	81	60.9	2	6	112	0.00	29.959 
22:50	66.9	66.9	66.9	81	60.9	0	3	90	0.00	29.959 
22:55	66.8	66.8	66.8	81	60.8	0	2	90	0.00	29.959 
23:00	66.6	66.6	66.6	81	60.6	1	4	90	0.00	29.959 
23:05	66.4	66.4	66.4	81	60.4	0	2	90	0.00	29.959 
23:10	66.4	66.4	66.4	81	60.4	1	4	90	0.00	29.959 
23:15	66.3	66.3	66.3	82	60.6	0	3	90	0.00	29.959 
23:20	66.3	66.3	66.3	82	60.6	1	3	90	0.00	29.959 
23:25	66.3	66.3	66.3	82	60.6	0	3	90	0.00	29.959 
23:30	66.1	66.1	66.1	83	60.8	1	5	90	0.00	29.957 
23:35	66.0	66.0	66.0	82	60.3	1	4	68	0.00	29.957 
23:40	66.0	66.0	66.0	82	60.3	1	4	68	0.00	29.957 
23:45	65.8	65.8	65.8	83	60.5	1	4	68	0.00	29.957 
23:50	65.8	65.8	65.8	82	60.1	1	4	68	0.00	29.957 
23:55	65.6	65.6	65.6	82	59.9	1	4	68	0.00	29.957 

CoCoRaHS
IN-AL-39
A2 Web Hosting
Creative Commons License
GoDaddy
search engine by freefind advanced

loaded 2018-11-17 15:14:06 • last modified 2010-11-18 10:43:29
Privacy PolicyDisclaimer
• wx.awcolley.com is powered by PmWiki v.2002016 •
• all content (unless otherwise noted) © 2018 A W Colley